sensor_id;sensor_type;location;lat;lon;timestamp;pressure;altitude;pressure_sealevel;temperature;humidity
41250;BME280;26984;59.928;30.306;2023-09-08T00:02:17;101992.34;;;14.47;100.00
41250;BME280;26984;59.928;30.306;2023-09-08T00:04:44;101999.25;;;14.43;100.00
41250;BME280;26984;59.928;30.306;2023-09-08T00:07:13;101996.75;;;14.41;100.00
41250;BME280;26984;59.928;30.306;2023-09-08T00:09:40;102006.53;;;14.35;100.00
41250;BME280;26984;59.928;30.306;2023-09-08T00:12:08;102012.38;;;14.39;100.00
41250;BME280;26984;59.928;30.306;2023-09-08T00:14:35;102010.91;;;14.30;100.00
41250;BME280;26984;59.928;30.306;2023-09-08T00:17:03;102002.16;;;14.28;100.00
41250;BME280;26984;59.928;30.306;2023-09-08T00:19:30;101994.88;;;14.28;100.00
41250;BME280;26984;59.928;30.306;2023-09-08T00:21:58;101994.88;;;14.28;100.00
41250;BME280;26984;59.928;30.306;2023-09-08T00:24:27;101992.78;;;14.24;100.00
41250;BME280;26984;59.928;30.306;2023-09-08T00:26:55;101993.63;;;14.24;100.00
41250;BME280;26984;59.928;30.306;2023-09-08T00:29:22;101992.16;;;14.22;100.00
41250;BME280;26984;59.928;30.306;2023-09-08T00:31:50;101994.03;;;14.28;100.00
41250;BME280;26984;59.928;30.306;2023-09-08T00:34:17;101990.50;;;14.27;100.00
41250;BME280;26984;59.928;30.306;2023-09-08T00:36:44;101990.50;;;14.34;100.00
41250;BME280;26984;59.928;30.306;2023-09-08T00:39:12;101991.75;;;14.31;100.00
41250;BME280;26984;59.928;30.306;2023-09-08T00:41:41;101991.94;;;14.36;100.00
41250;BME280;26984;59.928;30.306;2023-09-08T00:44:08;101984.03;;;14.28;100.00
41250;BME280;26984;59.928;30.306;2023-09-08T00:46:37;101985.91;;;14.28;100.00
41250;BME280;26984;59.928;30.306;2023-09-08T00:49:04;101977.56;;;14.29;100.00
41250;BME280;26984;59.928;30.306;2023-09-08T00:51:34;101977.34;;;14.24;100.00
41250;BME280;26984;59.928;30.306;2023-09-08T00:54:04;101973.81;;;14.24;100.00
41250;BME280;26984;59.928;30.306;2023-09-08T00:56:32;101966.28;;;14.19;100.00
41250;BME280;26984;59.928;30.306;2023-09-08T00:59:01;101967.97;;;14.20;100.00
41250;BME280;26984;59.928;30.306;2023-09-08T01:01:29;101969.41;;;14.23;100.00
41250;BME280;26984;59.928;30.306;2023-09-08T01:03:57;101974.44;;;14.12;100.00
41250;BME280;26984;59.928;30.306;2023-09-08T01:06:24;101977.56;;;14.09;100.00
41250;BME280;26984;59.928;30.306;2023-09-08T01:08:52;101983.59;;;14.18;100.00
41250;BME280;26984;59.928;30.306;2023-09-08T01:11:19;101979.41;;;14.16;100.00
41250;BME280;26984;59.928;30.306;2023-09-08T01:13:48;101980.47;;;14.14;100.00
41250;BME280;26984;59.928;30.306;2023-09-08T01:16:17;101975.88;;;14.15;100.00
41250;BME280;26984;59.928;30.306;2023-09-08T01:18:44;101977.16;;;14.12;100.00
41250;BME280;26984;59.928;30.306;2023-09-08T01:21:20;101975.03;;;14.14;100.00
41250;BME280;26984;59.928;30.306;2023-09-08T01:23:59;101967.97;;;14.20;100.00
41250;BME280;26984;59.928;30.306;2023-09-08T01:26:35;101975.06;;;14.21;100.00
41250;BME280;26984;59.928;30.306;2023-09-08T01:29:04;101974.84;;;14.29;100.00
41250;BME280;26984;59.928;30.306;2023-09-08T01:31:32;101965.03;;;14.28;100.00
41250;BME280;26984;59.928;30.306;2023-09-08T01:34:00;101965.03;;;14.28;100.00
41250;BME280;26984;59.928;30.306;2023-09-08T01:36:30;101968.78;;;14.41;100.00
41250;BME280;26984;59.928;30.306;2023-09-08T01:38:57;101964.84;;;14.43;100.00
41250;BME280;26984;59.928;30.306;2023-09-08T01:41:25;101961.72;;;14.46;100.00
41250;BME280;26984;59.928;30.306;2023-09-08T01:43:54;101961.09;;;14.51;100.00
41250;BME280;26984;59.928;30.306;2023-09-08T01:46:21;101962.16;;;14.50;100.00
41250;BME280;26984;59.928;30.306;2023-09-08T01:48:49;101953.59;;;14.53;100.00
41250;BME280;26984;59.928;30.306;2023-09-08T01:51:16;101955.25;;;14.60;100.00
41250;BME280;26984;59.928;30.306;2023-09-08T01:53:43;101955.25;;;14.60;100.00
41250;BME280;26984;59.928;30.306;2023-09-08T01:56:11;101950.66;;;14.61;100.00
41250;BME280;26984;59.928;30.306;2023-09-08T01:58:38;101955.66;;;14.57;100.00
41250;BME280;26984;59.928;30.306;2023-09-08T02:01:07;101950.88;;;14.59;100.00
41250;BME280;26984;59.928;30.306;2023-09-08T02:03:35;101934.59;;;14.66;100.00
41250;BME280;26984;59.928;30.306;2023-09-08T02:06:02;101938.13;;;14.73;100.00
41250;BME280;26984;59.928;30.306;2023-09-08T02:08:30;101943.97;;;14.77;100.00
41250;BME280;26984;59.928;30.306;2023-09-08T02:10:58;101937.50;;;14.71;100.00
41250;BME280;26984;59.928;30.306;2023-09-08T02:13:26;101938.31;;;14.78;100.00
41250;BME280;26984;59.928;30.306;2023-09-08T02:15:53;101938.97;;;14.80;100.00
41250;BME280;26984;59.928;30.306;2023-09-08T02:18:22;101931.22;;;14.84;100.00
41250;BME280;26984;59.928;30.306;2023-09-08T02:20:51;101927.03;;;14.81;100.00
41250;BME280;26984;59.928;30.306;2023-09-08T02:23:19;101928.94;;;14.81;100.00
41250;BME280;26984;59.928;30.306;2023-09-08T02:25:46;101923.50;;;14.81;100.00
41250;BME280;26984;59.928;30.306;2023-09-08T02:28:14;101930.59;;;14.82;100.00
41250;BME280;26984;59.928;30.306;2023-09-08T02:30:41;101931.81;;;14.86;100.00
41250;BME280;26984;59.928;30.306;2023-09-08T02:33:09;101931.22;;;14.84;100.00
41250;BME280;26984;59.928;30.306;2023-09-08T02:35:39;101932.06;;;14.84;100.00
41250;BME280;26984;59.928;30.306;2023-09-08T02:38:08;101930.81;;;14.87;100.00
41250;BME280;26984;59.928;30.306;2023-09-08T02:40:36;101926.63;;;14.84;100.00
41250;BME280;26984;59.928;30.306;2023-09-08T02:43:04;101929.94;;;14.93;100.00
41250;BME280;26984;59.928;30.306;2023-09-08T02:45:32;101927.03;;;14.88;100.00
41250;BME280;26984;59.928;30.306;2023-09-08T02:47:59;101924.56;;;14.80;100.00
41250;BME280;26984;59.928;30.306;2023-09-08T02:50:27;101914.31;;;14.82;100.00
41250;BME280;26984;59.928;30.306;2023-09-08T02:52:55;101912.44;;;14.82;100.00
41250;BME280;26984;59.928;30.306;2023-09-08T02:55:23;101908.28;;;14.80;100.00
41250;BME280;26984;59.928;30.306;2023-09-08T02:57:50;101901.59;;;14.76;100.00
41250;BME280;26984;59.928;30.306;2023-09-08T03:00:18;101898.69;;;14.77;100.00
41250;BME280;26984;59.928;30.306;2023-09-08T03:02:45;101899.09;;;14.74;100.00
41250;BME280;26984;59.928;30.306;2023-09-08T03:05:12;101895.34;;;14.75;100.00
41250;BME280;26984;59.928;30.306;2023-09-08T03:07:40;101890.13;;;14.80;100.00
41250;BME280;26984;59.928;30.306;2023-09-08T03:10:09;101893.91;;;14.73;100.00
41250;BME280;26984;59.928;30.306;2023-09-08T03:12:37;101886.38;;;14.75;100.00
41250;BME280;26984;59.928;30.306;2023-09-08T03:15:05;101890.72;;;14.82;100.00
41250;BME280;26984;59.928;30.306;2023-09-08T03:17:32;101885.13;;;14.77;100.00
41250;BME280;26984;59.928;30.306;2023-09-08T03:20:00;101883.00;;;14.79;100.00
41250;BME280;26984;59.928;30.306;2023-09-08T03:22:31;101881.50;;;14.90;100.00
41250;BME280;26984;59.928;30.306;2023-09-08T03:24:58;101888.00;;;14.89;100.00
41250;BME280;26984;59.928;30.306;2023-09-08T03:27:27;101879.41;;;14.99;100.00
41250;BME280;26984;59.928;30.306;2023-09-08T03:29:54;101880.47;;;14.91;100.00
41250;BME280;26984;59.928;30.306;2023-09-08T03:32:22;101875.88;;;14.98;100.00
41250;BME280;26984;59.928;30.306;2023-09-08T03:34:51;101875.47;;;14.95;100.00
41250;BME280;26984;59.928;30.306;2023-09-08T03:37:18;101877.34;;;14.94;100.00
41250;BME280;26984;59.928;30.306;2023-09-08T03:39:46;101878.78;;;14.97;100.00
41250;BME280;26984;59.928;30.306;2023-09-08T03:42:13;101878.78;;;14.97;100.00
41250;BME280;26984;59.928;30.306;2023-09-08T03:44:42;101872.34;;;14.91;100.00
41250;BME280;26984;59.928;30.306;2023-09-08T03:47:09;101877.28;;;15.01;100.00
41250;BME280;26984;59.928;30.306;2023-09-08T03:49:37;101875.22;;;14.96;100.00
41250;BME280;26984;59.928;30.306;2023-09-08T03:52:05;101871.00;;;15.07;100.00
41250;BME280;26984;59.928;30.306;2023-09-08T03:54:32;101878.09;;;15.08;100.00
41250;BME280;26984;59.928;30.306;2023-09-08T03:56:59;101878.28;;;15.13;100.00
41250;BME280;26984;59.928;30.306;2023-09-08T03:59:27;101880.97;;;15.20;100.00
41250;BME280;26984;59.928;30.306;2023-09-08T04:01:56;101880.56;;;15.23;100.00
41250;BME280;26984;59.928;30.306;2023-09-08T04:04:23;101878.84;;;15.28;100.00
41250;BME280;26984;59.928;30.306;2023-09-08T04:06:51;101882.59;;;15.27;100.00
41250;BME280;26984;59.928;30.306;2023-09-08T04:09:18;101879.66;;;15.29;100.00
41250;BME280;26984;59.928;30.306;2023-09-08T04:11:45;101882.81;;;15.26;100.00
41250;BME280;26984;59.928;30.306;2023-09-08T04:14:13;101875.91;;;15.30;100.00
41250;BME280;26984;59.928;30.306;2023-09-08T04:16:40;101881.78;;;15.27;100.00
41250;BME280;26984;59.928;30.306;2023-09-08T04:19:09;101884.09;;;15.23;100.00
41250;BME280;26984;59.928;30.306;2023-09-08T04:21:37;101891.84;;;15.20;100.00
41250;BME280;26984;59.928;30.306;2023-09-08T04:24:05;101877.84;;;15.23;100.00
41250;BME280;26984;59.928;30.306;2023-09-08T04:26:36;101887.22;;;15.27;100.00
41250;BME280;26984;59.928;30.306;2023-09-08T04:29:04;101877.38;;;15.26;100.00
41250;BME280;26984;59.928;30.306;2023-09-08T04:31:31;101880.06;;;15.32;100.00
41250;BME280;26984;59.928;30.306;2023-09-08T04:33:59;101886.13;;;15.35;100.00
41250;BME280;26984;59.928;30.306;2023-09-08T04:36:28;101877.75;;;15.36;100.00
41250;BME280;26984;59.928;30.306;2023-09-08T04:38:57;101878.56;;;15.37;100.00
41250;BME280;26984;59.928;30.306;2023-09-08T04:41:25;101871.28;;;15.37;100.00
41250;BME280;26984;59.928;30.306;2023-09-08T04:43:52;101870.66;;;15.35;100.00
41250;BME280;26984;59.928;30.306;2023-09-08T04:46:21;101870.25;;;15.31;100.00
41250;BME280;26984;59.928;30.306;2023-09-08T04:48:48;101865.88;;;15.30;100.00
41250;BME280;26984;59.928;30.306;2023-09-08T04:51:17;101863.56;;;15.34;100.00
41250;BME280;26984;59.928;30.306;2023-09-08T04:53:46;101870.66;;;15.35;100.00
41250;BME280;26984;59.928;30.306;2023-09-08T04:56:14;101875.22;;;15.41;100.00
41250;BME280;26984;59.928;30.306;2023-09-08T04:58:42;101874.78;;;15.44;100.00
41250;BME280;26984;59.928;30.306;2023-09-08T05:01:09;101870.38;;;15.43;100.00
41250;BME280;26984;59.928;30.306;2023-09-08T05:03:37;101868.09;;;15.40;100.00
41250;BME280;26984;59.928;30.306;2023-09-08T05:06:06;101869.28;;;15.51;100.00
41250;BME280;26984;59.928;30.306;2023-09-08T05:08:33;101861.34;;;15.56;100.00
41250;BME280;26984;59.928;30.306;2023-09-08T05:11:02;101863.16;;;15.69;100.00
41250;BME280;26984;59.928;30.306;2023-09-08T05:13:31;101866.72;;;15.69;100.00
41250;BME280;26984;59.928;30.306;2023-09-08T05:16:01;101857.28;;;15.72;100.00
41250;BME280;26984;59.928;30.306;2023-09-08T05:18:39;101856.69;;;15.70;100.00
41250;BME280;26984;59.928;30.306;2023-09-08T05:21:07;101855.41;;;15.72;100.00
41250;BME280;26984;59.928;30.306;2023-09-08T05:23:34;101851.41;;;15.75;100.00
41250;BME280;26984;59.928;30.306;2023-09-08T05:26:03;101859.13;;;15.78;100.00
41250;BME280;26984;59.928;30.306;2023-09-08T05:28:31;101852.22;;;15.75;100.00
41250;BME280;26984;59.928;30.306;2023-09-08T05:30:58;101860.72;;;15.86;100.00
41250;BME280;26984;59.928;30.306;2023-09-08T05:33:26;101851.31;;;15.88;100.00
41250;BME280;26984;59.928;30.306;2023-09-08T05:35:53;101860.66;;;15.92;100.00
41250;BME280;26984;59.928;30.306;2023-09-08T05:38:21;101858.72;;;15.99;100.00
41250;BME280;26984;59.928;30.306;2023-09-08T05:40:51;101867.50;;;16.01;100.00
41250;BME280;26984;59.928;30.306;2023-09-08T05:43:20;101866.44;;;16.02;100.00
41250;BME280;26984;59.928;30.306;2023-09-08T05:45:48;101866.00;;;16.06;100.00
41250;BME280;26984;59.928;30.306;2023-09-08T05:48:16;101868.66;;;16.12;100.00
41250;BME280;26984;59.928;30.306;2023-09-08T05:50:43;101858.56;;;16.19;100.00
41250;BME280;26984;59.928;30.306;2023-09-08T05:53:12;101851.31;;;16.32;100.00
41250;BME280;26984;59.928;30.306;2023-09-08T05:55:39;101851.00;;;16.40;100.00
41250;BME280;26984;59.928;30.306;2023-09-08T05:58:07;101843.03;;;16.45;100.00
41250;BME280;26984;59.928;30.306;2023-09-08T06:00:35;101829.56;;;16.50;100.00
41250;BME280;26984;59.928;30.306;2023-09-08T06:03:03;101836.00;;;16.56;100.00
41250;BME280;26984;59.928;30.306;2023-09-08T06:05:32;101826.75;;;16.57;100.00
41250;BME280;26984;59.928;30.306;2023-09-08T06:07:59;101836.13;;;16.61;100.00
41250;BME280;26984;59.928;30.306;2023-09-08T06:10:26;101836.97;;;16.61;100.00
41250;BME280;26984;59.928;30.306;2023-09-08T06:12:54;101839.59;;;16.68;100.00
41250;BME280;26984;59.928;30.306;2023-09-08T06:15:21;101838.78;;;16.67;100.00
41250;BME280;26984;59.928;30.306;2023-09-08T06:17:50;101831.44;;;16.68;100.00
41250;BME280;26984;59.928;30.306;2023-09-08T06:20:18;101831.00;;;16.71;100.00
41250;BME280;26984;59.928;30.306;2023-09-08T06:22:45;101831.88;;;16.65;100.00
41250;BME280;26984;59.928;30.306;2023-09-08T06:25:13;101829.28;;;16.58;100.00
41250;BME280;26984;59.928;30.306;2023-09-08T06:27:41;101832.81;;;16.59;100.00
41250;BME280;26984;59.928;30.306;2023-09-08T06:30:09;101838.63;;;16.62;100.00
41250;BME280;26984;59.928;30.306;2023-09-08T06:32:36;101838.84;;;16.61;100.00
41250;BME280;26984;59.928;30.306;2023-09-08T06:35:05;101834.63;;;16.65;100.00
41250;BME280;26984;59.928;30.306;2023-09-08T06:37:34;101837.66;;;16.75;100.00
41250;BME280;26984;59.928;30.306;2023-09-08T06:40:03;101839.41;;;16.88;100.00
41250;BME280;26984;59.928;30.306;2023-09-08T06:42:31;101831.47;;;16.86;100.00
41250;BME280;26984;59.928;30.306;2023-09-08T06:45:08;101828.06;;;16.91;100.00
41250;BME280;26984;59.928;30.306;2023-09-08T06:47:35;101843.56;;;16.90;100.00
41250;BME280;26984;59.928;30.306;2023-09-08T06:50:03;101838.78;;;16.86;100.00
41250;BME280;26984;59.928;30.306;2023-09-08T06:52:32;101840.22;;;16.88;100.00
41250;BME280;26984;59.928;30.306;2023-09-08T06:55:00;101844.84;;;16.88;100.00
41250;BME280;26984;59.928;30.306;2023-09-08T06:57:27;101837.44;;;16.95;100.00
41250;BME280;26984;59.928;30.306;2023-09-08T06:59:55;101840.53;;;16.98;100.00
41250;BME280;26984;59.928;30.306;2023-09-08T07:02:22;101828.44;;;16.94;100.00
41250;BME280;26984;59.928;30.306;2023-09-08T07:04:50;101832.72;;;17.02;100.00
41250;BME280;26984;59.928;30.306;2023-09-08T07:07:18;101837.00;;;17.10;100.00
41250;BME280;26984;59.928;30.306;2023-09-08T07:09:48;101831.66;;;17.03;100.00
41250;BME280;26984;59.928;30.306;2023-09-08T07:12:15;101834.47;;;17.27;100.00
41250;BME280;26984;59.928;30.306;2023-09-08T07:14:43;101830.03;;;17.44;100.00
41250;BME280;26984;59.928;30.306;2023-09-08T07:17:10;101831.38;;;17.65;100.00
41250;BME280;26984;59.928;30.306;2023-09-08T07:19:38;101823.31;;;17.70;100.00
41250;BME280;26984;59.928;30.306;2023-09-08T07:22:06;101828.47;;;17.78;100.00
41250;BME280;26984;59.928;30.306;2023-09-08T07:24:34;101826.34;;;17.92;100.00
41250;BME280;26984;59.928;30.306;2023-09-08T07:27:03;101837.63;;;18.07;100.00
41250;BME280;26984;59.928;30.306;2023-09-08T07:29:31;101834.28;;;18.05;100.00
41250;BME280;26984;59.928;30.306;2023-09-08T07:31:59;101839.38;;;18.13;100.00
41250;BME280;26984;59.928;30.306;2023-09-08T07:34:27;101829.06;;;18.27;100.00
41250;BME280;26984;59.928;30.306;2023-09-08T07:36:55;101827.28;;;18.33;100.00
41250;BME280;26984;59.928;30.306;2023-09-08T07:39:22;101828.91;;;18.46;100.00
41250;BME280;26984;59.928;30.306;2023-09-08T07:41:50;101826.19;;;18.57;100.00
41250;BME280;26984;59.928;30.306;2023-09-08T07:44:19;101826.88;;;18.76;100.00
41250;BME280;26984;59.928;30.306;2023-09-08T07:46:47;101828.59;;;18.94;100.00
41250;BME280;26984;59.928;30.306;2023-09-08T07:49:17;101820.75;;;18.98;100.00
41250;BME280;26984;59.928;30.306;2023-09-08T07:51:46;101829.38;;;19.06;100.00
41250;BME280;26984;59.928;30.306;2023-09-08T07:54:13;101832.69;;;19.08;100.00
41250;BME280;26984;59.928;30.306;2023-09-08T07:56:41;101823.47;;;18.98;100.00
41250;BME280;26984;59.928;30.306;2023-09-08T07:59:08;101829.00;;;18.86;100.00
41250;BME280;26984;59.928;30.306;2023-09-08T08:01:37;101827.78;;;18.82;100.00
41250;BME280;26984;59.928;30.306;2023-09-08T08:04:05;101827.09;;;18.86;100.00
41250;BME280;26984;59.928;30.306;2023-09-08T08:06:32;101827.50;;;18.95;100.00
41250;BME280;26984;59.928;30.306;2023-09-08T08:09:00;101827.84;;;18.99;100.00
41250;BME280;26984;59.928;30.306;2023-09-08T08:11:27;101824.00;;;18.83;100.00
41250;BME280;26984;59.928;30.306;2023-09-08T08:13:55;101837.31;;;18.79;100.00
41250;BME280;26984;59.928;30.306;2023-09-08T08:16:23;101835.53;;;18.73;100.00
41250;BME280;26984;59.928;30.306;2023-09-08T08:18:52;101829.47;;;18.71;100.00
41250;BME280;26984;59.928;30.306;2023-09-08T08:21:19;101832.34;;;18.76;100.00
41250;BME280;26984;59.928;30.306;2023-09-08T08:23:48;101831.50;;;18.76;100.00
41250;BME280;26984;59.928;30.306;2023-09-08T08:26:16;101832.53;;;18.86;100.00
41250;BME280;26984;59.928;30.306;2023-09-08T08:28:44;101825.78;;;18.89;100.00
41250;BME280;26984;59.928;30.306;2023-09-08T08:31:11;101825.13;;;18.99;100.00
41250;BME280;26984;59.928;30.306;2023-09-08T08:33:39;101826.81;;;19.17;100.00
41250;BME280;26984;59.928;30.306;2023-09-08T08:36:08;101826.19;;;19.26;100.00
41250;BME280;26984;59.928;30.306;2023-09-08T08:38:35;101819.41;;;19.46;100.00
41250;BME280;26984;59.928;30.306;2023-09-08T08:41:03;101821.94;;;19.47;100.00
41250;BME280;26984;59.928;30.306;2023-09-08T08:43:31;101817.28;;;19.48;100.00
41250;BME280;26984;59.928;30.306;2023-09-08T08:45:59;101825.91;;;19.40;100.00
41250;BME280;26984;59.928;30.306;2023-09-08T08:48:27;101813.53;;;19.37;100.00
41250;BME280;26984;59.928;30.306;2023-09-08T08:50:56;101820.66;;;19.21;100.00
41250;BME280;26984;59.928;30.306;2023-09-08T08:53:25;101805.47;;;19.13;100.00
41250;BME280;26984;59.928;30.306;2023-09-08T08:55:54;101807.44;;;19.01;100.00
41250;BME280;26984;59.928;30.306;2023-09-08T08:58:22;101804.69;;;19.01;100.00
41250;BME280;26984;59.928;30.306;2023-09-08T09:00:53;101802.94;;;18.95;100.00
41250;BME280;26984;59.928;30.306;2023-09-08T09:03:23;101800.31;;;19.00;100.00
41250;BME280;26984;59.928;30.306;2023-09-08T09:05:51;101794.25;;;18.98;100.00
41250;BME280;26984;59.928;30.306;2023-09-08T09:08:19;101801.34;;;19.11;100.00
41250;BME280;26984;59.928;30.306;2023-09-08T09:10:49;101802.56;;;19.03;100.00
41250;BME280;26984;59.928;30.306;2023-09-08T09:13:17;101798.34;;;19.12;100.00
41250;BME280;26984;59.928;30.306;2023-09-08T09:15:44;101794.00;;;19.28;100.00
41250;BME280;26984;59.928;30.306;2023-09-08T09:18:12;101807.19;;;19.48;100.00
41250;BME280;26984;59.928;30.306;2023-09-08T09:20:40;101802.75;;;19.76;100.00
41250;BME280;26984;59.928;30.306;2023-09-08T09:23:08;101806.69;;;19.85;100.00
41250;BME280;26984;59.928;30.306;2023-09-08T09:25:36;101805.16;;;19.89;100.00
41250;BME280;26984;59.928;30.306;2023-09-08T09:28:05;101809.69;;;19.83;100.00
41250;BME280;26984;59.928;30.306;2023-09-08T09:33:22;101810.28;;;19.69;100.00
41250;BME280;26984;59.928;30.306;2023-09-08T09:35:50;101803.50;;;19.71;100.00
41250;BME280;26984;59.928;30.306;2023-09-08T09:38:18;101803.25;;;19.73;100.00
41250;BME280;26984;59.928;30.306;2023-09-08T09:40:46;101800.94;;;19.65;100.00
41250;BME280;26984;59.928;30.306;2023-09-08T09:43:16;101801.22;;;19.85;100.00
41250;BME280;26984;59.928;30.306;2023-09-08T09:45:43;101804.31;;;19.89;100.00
41250;BME280;26984;59.928;30.306;2023-09-08T09:48:11;101806.22;;;19.88;100.00
41250;BME280;26984;59.928;30.306;2023-09-08T09:50:39;101804.41;;;19.94;100.00
41250;BME280;26984;59.928;30.306;2023-09-08T09:53:08;101806.31;;;19.93;100.00
41250;BME280;26984;59.928;30.306;2023-09-08T09:55:37;101812.28;;;19.90;100.00
41250;BME280;26984;59.928;30.306;2023-09-08T09:58:04;101813.91;;;19.74;100.00
41250;BME280;26984;59.928;30.306;2023-09-08T10:00:34;101812.09;;;19.80;100.00
41250;BME280;26984;59.928;30.306;2023-09-08T10:03:03;101813.84;;;19.69;100.00
41250;BME280;26984;59.928;30.306;2023-09-08T10:05:31;101818.44;;;19.52;100.00
41250;BME280;26984;59.928;30.306;2023-09-08T10:07:58;101815.00;;;19.28;100.00
41250;BME280;26984;59.928;30.306;2023-09-08T10:10:26;101811.53;;;19.16;100.00
41250;BME280;26984;59.928;30.306;2023-09-08T10:12:55;101823.03;;;19.18;100.00
41250;BME280;26984;59.928;30.306;2023-09-08T10:15:24;101825.44;;;19.14;100.00
41250;BME280;26984;59.928;30.306;2023-09-08T10:17:54;101817.84;;;19.33;100.00
41250;BME280;26984;59.928;30.306;2023-09-08T10:20:23;101812.50;;;19.55;100.00
41250;BME280;26984;59.928;30.306;2023-09-08T10:22:52;101815.56;;;19.58;100.00
41250;BME280;26984;59.928;30.306;2023-09-08T10:25:20;101817.66;;;19.68;100.00
41250;BME280;26984;59.928;30.306;2023-09-08T10:27:48;101821.97;;;19.81;98.98
41250;BME280;26984;59.928;30.306;2023-09-08T10:30:16;101815.16;;;19.83;97.17
41250;BME280;26984;59.928;30.306;2023-09-08T10:32:46;101824.53;;;20.04;98.24
41250;BME280;26984;59.928;30.306;2023-09-08T10:35:17;101819.03;;;20.04;97.75
41250;BME280;26984;59.928;30.306;2023-09-08T10:37:46;101819.97;;;20.10;97.00
41250;BME280;26984;59.928;30.306;2023-09-08T10:40:20;101830.78;;;20.22;96.89
41250;BME280;26984;59.928;30.306;2023-09-08T10:42:47;101809.31;;;20.52;95.99
41250;BME280;26984;59.928;30.306;2023-09-08T10:45:15;101814.44;;;20.66;95.05
41250;BME280;26984;59.928;30.306;2023-09-08T10:47:54;101807.16;;;20.76;95.39
41250;BME280;26984;59.928;30.306;2023-09-08T10:50:30;101811.94;;;20.86;90.21
41250;BME280;26984;59.928;30.306;2023-09-08T10:53:04;101812.84;;;20.70;91.23
41250;BME280;26984;59.928;30.306;2023-09-08T10:55:35;101807.31;;;20.65;91.39
41250;BME280;26984;59.928;30.306;2023-09-08T10:58:03;101808.72;;;20.67;98.17
41250;BME280;26984;59.928;30.306;2023-09-08T11:00:42;101813.31;;;20.45;99.81
41250;BME280;26984;59.928;30.306;2023-09-08T11:03:09;101813.63;;;20.26;100.00
41250;BME280;26984;59.928;30.306;2023-09-08T11:05:38;101814.94;;;20.24;100.00
41250;BME280;26984;59.928;30.306;2023-09-08T11:08:06;101810.63;;;20.28;100.00
41250;BME280;26984;59.928;30.306;2023-09-08T11:10:33;101816.00;;;20.40;100.00
41250;BME280;26984;59.928;30.306;2023-09-08T11:13:04;101808.75;;;20.72;96.82
41250;BME280;26984;59.928;30.306;2023-09-08T11:15:32;101806.34;;;20.76;93.81
41250;BME280;26984;59.928;30.306;2023-09-08T11:18:04;101799.22;;;20.75;94.93
41250;BME280;26984;59.928;30.306;2023-09-08T11:20:31;101796.66;;;20.90;94.21
41250;BME280;26984;59.928;30.306;2023-09-08T11:23:00;101809.63;;;21.27;89.40
41250;BME280;26984;59.928;30.306;2023-09-08T11:25:29;101807.16;;;21.52;85.61
41250;BME280;26984;59.928;30.306;2023-09-08T11:27:57;101810.19;;;21.88;83.03
41250;BME280;26984;59.928;30.306;2023-09-08T11:30:24;101802.84;;;21.99;84.30
41250;BME280;26984;59.928;30.306;2023-09-08T11:32:52;101798.03;;;21.79;83.48
41250;BME280;26984;59.928;30.306;2023-09-08T11:35:19;101805.53;;;21.94;82.93
41250;BME280;26984;59.928;30.306;2023-09-08T11:37:47;101807.53;;;22.04;80.17
41250;BME280;26984;59.928;30.306;2023-09-08T11:40:19;101801.69;;;21.95;81.61
41250;BME280;26984;59.928;30.306;2023-09-08T11:42:48;101802.84;;;21.99;77.23
41250;BME280;26984;59.928;30.306;2023-09-08T11:45:16;101799.88;;;22.11;76.68
41250;BME280;26984;59.928;30.306;2023-09-08T11:47:47;101796.56;;;22.09;75.92
41250;BME280;26984;59.928;30.306;2023-09-08T11:50:15;101805.06;;;22.02;76.55
41250;BME280;26984;59.928;30.306;2023-09-08T11:52:44;101802.19;;;21.87;70.42
41250;BME280;26984;59.928;30.306;2023-09-08T11:55:11;101800.19;;;21.77;75.40
41250;BME280;26984;59.928;30.306;2023-09-08T11:57:41;101808.03;;;21.95;71.73
41250;BME280;26984;59.928;30.306;2023-09-08T12:00:10;101811.16;;;21.77;70.71
41250;BME280;26984;59.928;30.306;2023-09-08T12:02:42;101798.22;;;21.67;69.95
41250;BME280;26984;59.928;30.306;2023-09-08T12:05:12;101807.41;;;21.51;71.47
41250;BME280;26984;59.928;30.306;2023-09-08T12:07:40;101811.47;;;21.48;69.51
41250;BME280;26984;59.928;30.306;2023-09-08T12:10:08;101809.19;;;21.35;71.96
41250;BME280;26984;59.928;30.306;2023-09-08T12:12:42;101820.13;;;21.08;70.83
41250;BME280;26984;59.928;30.306;2023-09-08T12:15:10;101811.03;;;21.02;72.82
41250;BME280;26984;59.928;30.306;2023-09-08T12:17:48;101811.19;;;21.18;73.05
41250;BME280;26984;59.928;30.306;2023-09-08T12:20:16;101805.22;;;21.26;72.63
41250;BME280;26984;59.928;30.306;2023-09-08T12:22:49;101810.03;;;21.36;72.13
41250;BME280;26984;59.928;30.306;2023-09-08T12:25:17;101807.88;;;21.43;71.17
41250;BME280;26984;59.928;30.306;2023-09-08T12:27:49;101798.06;;;21.47;71.20
41250;BME280;26984;59.928;30.306;2023-09-08T12:30:16;101801.81;;;21.41;70.47
41250;BME280;26984;59.928;30.306;2023-09-08T12:32:45;101804.13;;;21.27;71.63
41250;BME280;26984;59.928;30.306;2023-09-08T12:35:13;101799.22;;;21.29;71.15
41250;BME280;26984;59.928;30.306;2023-09-08T12:37:40;101789.81;;;21.20;71.20
41250;BME280;26984;59.928;30.306;2023-09-08T12:40:08;101792.53;;;21.15;71.87